sensor_id;sensor_type;location;lat;lon;timestamp;P1;durP1;ratioP1;P2;durP2;ratioP2
17991;SDS011;9121;50.926;5.340;2024-01-30T00:00:10;15.30;;;8.10;;
17991;SDS011;9121;50.926;5.340;2024-01-30T00:02:37;15.37;;;8.73;;
17991;SDS011;9121;50.926;5.340;2024-01-30T00:05:05;15.30;;;8.10;;
17991;SDS011;9121;50.926;5.340;2024-01-30T00:07:33;18.50;;;8.77;;
17991;SDS011;9121;50.926;5.340;2024-01-30T00:10:02;14.53;;;7.90;;
17991;SDS011;9121;50.926;5.340;2024-01-30T00:12:31;17.73;;;8.57;;
17991;SDS011;9121;50.926;5.340;2024-01-30T00:14:58;14.90;;;8.03;;
17991;SDS011;9121;50.926;5.340;2024-01-30T00:17:25;13.30;;;7.90;;
17991;SDS011;9121;50.926;5.340;2024-01-30T00:19:52;15.93;;;8.37;;
17991;SDS011;9121;50.926;5.340;2024-01-30T00:22:20;21.10;;;8.10;;
17991;SDS011;9121;50.926;5.340;2024-01-30T00:24:48;15.87;;;7.73;;
17991;SDS011;9121;50.926;5.340;2024-01-30T00:27:15;12.80;;;7.60;;
17991;SDS011;9121;50.926;5.340;2024-01-30T00:29:42;13.63;;;7.53;;
17991;SDS011;9121;50.926;5.340;2024-01-30T00:32:09;12.30;;;7.07;;
17991;SDS011;9121;50.926;5.340;2024-01-30T00:34:36;10.37;;;6.70;;
17991;SDS011;9121;50.926;5.340;2024-01-30T00:37:04;12.47;;;7.10;;
17991;SDS011;9121;50.926;5.340;2024-01-30T00:39:31;15.47;;;7.40;;
17991;SDS011;9121;50.926;5.340;2024-01-30T00:42:00;13.27;;;7.70;;
17991;SDS011;9121;50.926;5.340;2024-01-30T00:44:26;12.47;;;7.23;;
17991;SDS011;9121;50.926;5.340;2024-01-30T00:46:53;19.50;;;7.20;;
17991;SDS011;9121;50.926;5.340;2024-01-30T00:49:20;13.17;;;6.67;;
17991;SDS011;9121;50.926;5.340;2024-01-30T00:51:47;15.33;;;7.17;;
17991;SDS011;9121;50.926;5.340;2024-01-30T00:54:14;15.90;;;7.70;;
17991;SDS011;9121;50.926;5.340;2024-01-30T00:56:41;12.27;;;7.50;;
17991;SDS011;9121;50.926;5.340;2024-01-30T00:59:11;12.40;;;7.47;;
17991;SDS011;9121;50.926;5.340;2024-01-30T01:01:38;14.13;;;7.43;;
17991;SDS011;9121;50.926;5.340;2024-01-30T01:04:05;12.60;;;7.20;;
17991;SDS011;9121;50.926;5.340;2024-01-30T01:06:32;11.40;;;7.07;;
17991;SDS011;9121;50.926;5.340;2024-01-30T01:08:59;12.30;;;7.00;;
17991;SDS011;9121;50.926;5.340;2024-01-30T01:11:28;13.93;;;7.50;;
17991;SDS011;9121;50.926;5.340;2024-01-30T01:13:55;15.67;;;7.47;;
17991;SDS011;9121;50.926;5.340;2024-01-30T01:16:23;12.23;;;7.00;;
17991;SDS011;9121;50.926;5.340;2024-01-30T01:18:50;13.30;;;7.53;;
17991;SDS011;9121;50.926;5.340;2024-01-30T01:21:17;15.13;;;6.87;;
17991;SDS011;9121;50.926;5.340;2024-01-30T01:23:44;13.03;;;7.27;;
17991;SDS011;9121;50.926;5.340;2024-01-30T01:26:11;11.93;;;7.43;;
17991;SDS011;9121;50.926;5.340;2024-01-30T01:28:39;12.30;;;6.53;;
17991;SDS011;9121;50.926;5.340;2024-01-30T01:31:07;14.27;;;7.10;;
17991;SDS011;9121;50.926;5.340;2024-01-30T01:33:36;12.97;;;6.87;;
17991;SDS011;9121;50.926;5.340;2024-01-30T01:36:03;10.60;;;7.00;;
17991;SDS011;9121;50.926;5.340;2024-01-30T01:38:31;14.67;;;6.67;;
17991;SDS011;9121;50.926;5.340;2024-01-30T01:40:58;14.33;;;6.83;;
17991;SDS011;9121;50.926;5.340;2024-01-30T01:43:25;13.77;;;7.07;;
17991;SDS011;9121;50.926;5.340;2024-01-30T01:45:52;12.50;;;6.73;;
17991;SDS011;9121;50.926;5.340;2024-01-30T01:48:20;12.27;;;6.83;;
17991;SDS011;9121;50.926;5.340;2024-01-30T01:50:48;13.97;;;6.87;;
17991;SDS011;9121;50.926;5.340;2024-01-30T01:53:15;10.33;;;6.53;;
17991;SDS011;9121;50.926;5.340;2024-01-30T01:55:43;14.20;;;6.80;;
17991;SDS011;9121;50.926;5.340;2024-01-30T01:58:11;13.47;;;6.57;;
17991;SDS011;9121;50.926;5.340;2024-01-30T02:00:40;13.27;;;7.00;;
17991;SDS011;9121;50.926;5.340;2024-01-30T02:03:08;11.10;;;6.40;;
17991;SDS011;9121;50.926;5.340;2024-01-30T02:05:37;11.77;;;6.93;;
17991;SDS011;9121;50.926;5.340;2024-01-30T02:08:07;10.00;;;6.40;;
17991;SDS011;9121;50.926;5.340;2024-01-30T02:10:35;17.17;;;7.40;;
17991;SDS011;9121;50.926;5.340;2024-01-30T02:13:02;13.07;;;7.13;;
17991;SDS011;9121;50.926;5.340;2024-01-30T02:15:29;12.33;;;6.37;;
17991;SDS011;9121;50.926;5.340;2024-01-30T02:17:56;16.90;;;6.70;;
17991;SDS011;9121;50.926;5.340;2024-01-30T02:20:23;14.50;;;6.67;;
17991;SDS011;9121;50.926;5.340;2024-01-30T02:22:52;13.67;;;6.33;;
17991;SDS011;9121;50.926;5.340;2024-01-30T02:25:29;13.67;;;6.53;;
17991;SDS011;9121;50.926;5.340;2024-01-30T02:27:57;10.07;;;5.97;;
17991;SDS011;9121;50.926;5.340;2024-01-30T02:30:24;12.63;;;6.50;;
17991;SDS011;9121;50.926;5.340;2024-01-30T02:32:51;13.37;;;6.60;;
17991;SDS011;9121;50.926;5.340;2024-01-30T02:35:18;10.87;;;6.30;;
17991;SDS011;9121;50.926;5.340;2024-01-30T02:37:44;11.93;;;6.00;;
17991;SDS011;9121;50.926;5.340;2024-01-30T02:40:13;14.90;;;6.20;;
17991;SDS011;9121;50.926;5.340;2024-01-30T02:42:40;10.60;;;6.23;;
17991;SDS011;9121;50.926;5.340;2024-01-30T02:45:08;10.83;;;6.40;;
17991;SDS011;9121;50.926;5.340;2024-01-30T02:47:36;10.50;;;5.90;;
17991;SDS011;9121;50.926;5.340;2024-01-30T02:50:03;10.43;;;6.03;;
17991;SDS011;9121;50.926;5.340;2024-01-30T02:52:30;11.17;;;6.20;;
17991;SDS011;9121;50.926;5.340;2024-01-30T02:54:57;13.77;;;5.87;;
17991;SDS011;9121;50.926;5.340;2024-01-30T02:57:25;9.93;;;5.67;;
17991;SDS011;9121;50.926;5.340;2024-01-30T02:59:52;10.83;;;6.30;;
17991;SDS011;9121;50.926;5.340;2024-01-30T03:02:19;11.30;;;6.00;;
17991;SDS011;9121;50.926;5.340;2024-01-30T03:04:47;12.27;;;6.00;;
17991;SDS011;9121;50.926;5.340;2024-01-30T03:07:14;9.93;;;5.70;;
17991;SDS011;9121;50.926;5.340;2024-01-30T03:09:41;8.27;;;5.73;;
17991;SDS011;9121;50.926;5.340;2024-01-30T03:12:09;9.33;;;5.57;;
17991;SDS011;9121;50.926;5.340;2024-01-30T03:14:37;11.83;;;6.07;;
17991;SDS011;9121;50.926;5.340;2024-01-30T03:17:04;12.67;;;5.93;;
17991;SDS011;9121;50.926;5.340;2024-01-30T03:19:31;10.20;;;5.80;;
17991;SDS011;9121;50.926;5.340;2024-01-30T03:21:58;9.43;;;5.67;;
17991;SDS011;9121;50.926;5.340;2024-01-30T03:24:25;8.80;;;5.57;;
17991;SDS011;9121;50.926;5.340;2024-01-30T03:26:52;9.83;;;5.60;;
17991;SDS011;9121;50.926;5.340;2024-01-30T03:29:20;9.80;;;5.67;;
17991;SDS011;9121;50.926;5.340;2024-01-30T03:31:48;10.97;;;5.73;;
17991;SDS011;9121;50.926;5.340;2024-01-30T03:34:15;10.33;;;5.87;;
17991;SDS011;9121;50.926;5.340;2024-01-30T03:36:42;10.17;;;5.70;;
17991;SDS011;9121;50.926;5.340;2024-01-30T03:39:09;9.47;;;5.90;;
17991;SDS011;9121;50.926;5.340;2024-01-30T03:41:36;13.13;;;5.83;;
17991;SDS011;9121;50.926;5.340;2024-01-30T03:44:03;11.63;;;5.70;;
17991;SDS011;9121;50.926;5.340;2024-01-30T03:46:30;9.50;;;5.37;;
17991;SDS011;9121;50.926;5.340;2024-01-30T03:48:58;10.70;;;5.47;;
17991;SDS011;9121;50.926;5.340;2024-01-30T03:51:25;9.83;;;5.60;;
17991;SDS011;9121;50.926;5.340;2024-01-30T03:53:52;12.90;;;5.53;;
17991;SDS011;9121;50.926;5.340;2024-01-30T03:56:19;9.30;;;6.07;;
17991;SDS011;9121;50.926;5.340;2024-01-30T03:58:46;15.00;;;6.77;;
17991;SDS011;9121;50.926;5.340;2024-01-30T04:01:13;11.30;;;5.93;;
17991;SDS011;9121;50.926;5.340;2024-01-30T04:03:40;12.83;;;6.17;;
17991;SDS011;9121;50.926;5.340;2024-01-30T04:06:08;10.73;;;5.30;;
17991;SDS011;9121;50.926;5.340;2024-01-30T04:08:35;13.73;;;6.00;;
17991;SDS011;9121;50.926;5.340;2024-01-30T04:11:03;12.87;;;6.07;;
17991;SDS011;9121;50.926;5.340;2024-01-30T04:13:31;10.37;;;5.73;;
17991;SDS011;9121;50.926;5.340;2024-01-30T04:15:59;10.33;;;5.53;;
17991;SDS011;9121;50.926;5.340;2024-01-30T04:18:26;12.77;;;6.33;;
17991;SDS011;9121;50.926;5.340;2024-01-30T04:20:53;9.47;;;5.90;;
17991;SDS011;9121;50.926;5.340;2024-01-30T04:23:22;11.37;;;6.00;;
17991;SDS011;9121;50.926;5.340;2024-01-30T04:25:48;10.90;;;6.17;;
17991;SDS011;9121;50.926;5.340;2024-01-30T04:28:15;10.47;;;5.77;;
17991;SDS011;9121;50.926;5.340;2024-01-30T04:30:42;10.77;;;6.27;;
17991;SDS011;9121;50.926;5.340;2024-01-30T04:33:10;10.30;;;5.80;;
17991;SDS011;9121;50.926;5.340;2024-01-30T04:35:37;9.10;;;5.67;;
17991;SDS011;9121;50.926;5.340;2024-01-30T04:38:04;11.63;;;6.30;;
17991;SDS011;9121;50.926;5.340;2024-01-30T04:40:32;13.90;;;6.97;;
17991;SDS011;9121;50.926;5.340;2024-01-30T04:42:59;13.90;;;5.97;;
17991;SDS011;9121;50.926;5.340;2024-01-30T04:45:26;14.33;;;5.77;;
17991;SDS011;9121;50.926;5.340;2024-01-30T04:47:53;12.43;;;6.00;;
17991;SDS011;9121;50.926;5.340;2024-01-30T04:50:20;9.10;;;5.53;;
17991;SDS011;9121;50.926;5.340;2024-01-30T04:52:47;11.10;;;5.90;;
17991;SDS011;9121;50.926;5.340;2024-01-30T04:55:14;9.27;;;5.80;;
17991;SDS011;9121;50.926;5.340;2024-01-30T04:57:42;12.80;;;6.40;;
17991;SDS011;9121;50.926;5.340;2024-01-30T05:00:09;7.63;;;5.33;;
17991;SDS011;9121;50.926;5.340;2024-01-30T05:02:37;9.67;;;5.70;;
17991;SDS011;9121;50.926;5.340;2024-01-30T05:05:05;8.90;;;6.00;;
17991;SDS011;9121;50.926;5.340;2024-01-30T05:07:32;8.77;;;5.53;;
17991;SDS011;9121;50.926;5.340;2024-01-30T05:09:59;10.83;;;5.90;;
17991;SDS011;9121;50.926;5.340;2024-01-30T05:12:26;10.13;;;5.80;;
17991;SDS011;9121;50.926;5.340;2024-01-30T05:14:55;10.27;;;6.20;;
17991;SDS011;9121;50.926;5.340;2024-01-30T05:17:22;9.10;;;5.37;;
17991;SDS011;9121;50.926;5.340;2024-01-30T05:19:48;10.10;;;5.60;;
17991;SDS011;9121;50.926;5.340;2024-01-30T05:22:15;10.30;;;6.27;;
17991;SDS011;9121;50.926;5.340;2024-01-30T05:24:43;10.67;;;5.67;;
17991;SDS011;9121;50.926;5.340;2024-01-30T05:27:11;11.17;;;5.83;;
17991;SDS011;9121;50.926;5.340;2024-01-30T05:29:38;10.00;;;6.37;;
17991;SDS011;9121;50.926;5.340;2024-01-30T05:32:07;11.40;;;6.33;;
17991;SDS011;9121;50.926;5.340;2024-01-30T05:34:34;9.20;;;6.23;;
17991;SDS011;9121;50.926;5.340;2024-01-30T05:37:01;9.30;;;5.80;;
17991;SDS011;9121;50.926;5.340;2024-01-30T05:39:29;12.37;;;5.50;;
17991;SDS011;9121;50.926;5.340;2024-01-30T05:41:58;14.37;;;6.50;;
17991;SDS011;9121;50.926;5.340;2024-01-30T05:44:25;10.73;;;5.60;;
17991;SDS011;9121;50.926;5.340;2024-01-30T05:46:52;10.00;;;5.70;;
17991;SDS011;9121;50.926;5.340;2024-01-30T05:49:20;10.83;;;6.17;;
17991;SDS011;9121;50.926;5.340;2024-01-30T05:51:47;9.53;;;5.60;;
17991;SDS011;9121;50.926;5.340;2024-01-30T05:54:14;9.67;;;5.33;;
17991;SDS011;9121;50.926;5.340;2024-01-30T05:56:41;12.13;;;5.77;;
17991;SDS011;9121;50.926;5.340;2024-01-30T05:59:07;10.83;;;5.77;;
17991;SDS011;9121;50.926;5.340;2024-01-30T06:01:34;8.97;;;6.10;;
17991;SDS011;9121;50.926;5.340;2024-01-30T06:04:01;9.87;;;6.30;;
17991;SDS011;9121;50.926;5.340;2024-01-30T06:06:30;10.13;;;5.73;;
17991;SDS011;9121;50.926;5.340;2024-01-30T06:08:57;9.53;;;5.90;;
17991;SDS011;9121;50.926;5.340;2024-01-30T06:11:24;10.50;;;6.23;;
17991;SDS011;9121;50.926;5.340;2024-01-30T06:13:50;9.70;;;5.60;;
17991;SDS011;9121;50.926;5.340;2024-01-30T06:16:17;13.37;;;6.00;;
17991;SDS011;9121;50.926;5.340;2024-01-30T06:18:46;11.43;;;6.07;;
17991;SDS011;9121;50.926;5.340;2024-01-30T06:21:13;11.90;;;6.23;;
17991;SDS011;9121;50.926;5.340;2024-01-30T06:23:41;9.80;;;6.03;;
17991;SDS011;9121;50.926;5.340;2024-01-30T06:26:08;12.10;;;5.40;;
17991;SDS011;9121;50.926;5.340;2024-01-30T06:28:35;10.87;;;5.67;;
17991;SDS011;9121;50.926;5.340;2024-01-30T06:31:02;14.53;;;6.23;;
17991;SDS011;9121;50.926;5.340;2024-01-30T06:33:29;8.63;;;6.13;;
17991;SDS011;9121;50.926;5.340;2024-01-30T06:35:56;9.10;;;6.03;;
17991;SDS011;9121;50.926;5.340;2024-01-30T06:38:23;14.73;;;6.13;;
17991;SDS011;9121;50.926;5.340;2024-01-30T06:40:51;10.03;;;6.07;;
17991;SDS011;9121;50.926;5.340;2024-01-30T06:43:18;11.10;;;6.03;;
17991;SDS011;9121;50.926;5.340;2024-01-30T06:45:45;16.27;;;7.00;;
17991;SDS011;9121;50.926;5.340;2024-01-30T06:48:12;13.13;;;6.93;;
17991;SDS011;9121;50.926;5.340;2024-01-30T06:50:39;12.27;;;6.47;;
17991;SDS011;9121;50.926;5.340;2024-01-30T06:53:06;10.40;;;6.13;;
17991;SDS011;9121;50.926;5.340;2024-01-30T06:55:33;11.67;;;7.03;;
17991;SDS011;9121;50.926;5.340;2024-01-30T06:58:01;12.70;;;7.07;;
17991;SDS011;9121;50.926;5.340;2024-01-30T07:00:28;12.17;;;6.93;;
17991;SDS011;9121;50.926;5.340;2024-01-30T07:02:55;15.53;;;7.60;;
17991;SDS011;9121;50.926;5.340;2024-01-30T07:05:22;13.90;;;6.70;;
17991;SDS011;9121;50.926;5.340;2024-01-30T07:07:49;10.77;;;7.17;;
17991;SDS011;9121;50.926;5.340;2024-01-30T07:10:16;11.73;;;6.27;;
17991;SDS011;9121;50.926;5.340;2024-01-30T07:12:43;13.30;;;6.90;;
17991;SDS011;9121;50.926;5.340;2024-01-30T07:15:11;12.30;;;5.97;;
17991;SDS011;9121;50.926;5.340;2024-01-30T07:17:41;10.67;;;6.57;;
17991;SDS011;9121;50.926;5.340;2024-01-30T07:20:08;13.33;;;6.47;;
17991;SDS011;9121;50.926;5.340;2024-01-30T07:22:36;9.43;;;5.70;;
17991;SDS011;9121;50.926;5.340;2024-01-30T07:25:03;12.83;;;6.70;;
17991;SDS011;9121;50.926;5.340;2024-01-30T07:27:31;11.67;;;6.17;;
17991;SDS011;9121;50.926;5.340;2024-01-30T07:29:57;14.50;;;7.07;;
17991;SDS011;9121;50.926;5.340;2024-01-30T07:32:26;16.33;;;6.50;;
17991;SDS011;9121;50.926;5.340;2024-01-30T07:34:53;12.03;;;6.07;;
17991;SDS011;9121;50.926;5.340;2024-01-30T07:37:20;12.03;;;6.53;;
17991;SDS011;9121;50.926;5.340;2024-01-30T07:39:47;12.00;;;6.10;;
17991;SDS011;9121;50.926;5.340;2024-01-30T07:42:14;12.37;;;6.37;;
17991;SDS011;9121;50.926;5.340;2024-01-30T07:44:41;10.50;;;5.83;;
17991;SDS011;9121;50.926;5.340;2024-01-30T07:47:08;14.38;;;6.95;;
17991;SDS011;9121;50.926;5.340;2024-01-30T07:49:40;12.00;;;5.95;;
17991;SDS011;9121;50.926;5.340;2024-01-30T07:52:07;15.30;;;6.83;;
17991;SDS011;9121;50.926;5.340;2024-01-30T07:54:34;15.00;;;6.43;;
17991;SDS011;9121;50.926;5.340;2024-01-30T07:57:15;14.30;;;6.32;;
17991;SDS011;9121;50.926;5.340;2024-01-30T07:59:42;13.27;;;6.27;;
17991;SDS011;9121;50.926;5.340;2024-01-30T08:02:10;16.85;;;6.95;;
17991;SDS011;9121;50.926;5.340;2024-01-30T08:04:39;13.40;;;6.43;;
17991;SDS011;9121;50.926;5.340;2024-01-30T08:07:06;13.03;;;6.50;;
17991;SDS011;9121;50.926;5.340;2024-01-30T08:09:33;9.93;;;6.50;;
17991;SDS011;9121;50.926;5.340;2024-01-30T08:12:01;15.15;;;6.90;;
17991;SDS011;9121;50.926;5.340;2024-01-30T08:14:28;14.10;;;6.95;;
17991;SDS011;9121;50.926;5.340;2024-01-30T08:16:54;14.82;;;6.13;;
17991;SDS011;9121;50.926;5.340;2024-01-30T08:19:22;10.95;;;6.88;;
17991;SDS011;9121;50.926;5.340;2024-01-30T08:21:50;13.40;;;7.10;;
17991;SDS011;9121;50.926;5.340;2024-01-30T08:24:17;11.87;;;6.80;;
17991;SDS011;9121;50.926;5.340;2024-01-30T08:26:44;14.70;;;6.57;;
17991;SDS011;9121;50.926;5.340;2024-01-30T08:29:11;9.97;;;6.00;;
17991;SDS011;9121;50.926;5.340;2024-01-30T08:31:38;13.63;;;6.27;;
17991;SDS011;9121;50.926;5.340;2024-01-30T08:34:05;12.88;;;6.57;;
17991;SDS011;9121;50.926;5.340;2024-01-30T08:36:32;12.50;;;6.57;;
17991;SDS011;9121;50.926;5.340;2024-01-30T08:39:01;15.03;;;6.67;;
17991;SDS011;9121;50.926;5.340;2024-01-30T08:41:30;11.23;;;6.43;;
17991;SDS011;9121;50.926;5.340;2024-01-30T08:43:57;15.27;;;6.40;;
17991;SDS011;9121;50.926;5.340;2024-01-30T08:46:24;12.73;;;6.55;;
17991;SDS011;9121;50.926;5.340;2024-01-30T08:48:51;15.68;;;7.22;;
17991;SDS011;9121;50.926;5.340;2024-01-30T08:51:18;13.45;;;6.45;;
17991;SDS011;9121;50.926;5.340;2024-01-30T08:53:45;9.60;;;6.47;;
17991;SDS011;9121;50.926;5.340;2024-01-30T08:56:13;17.10;;;7.00;;
17991;SDS011;9121;50.926;5.340;2024-01-30T08:58:41;14.60;;;6.63;;
17991;SDS011;9121;50.926;5.340;2024-01-30T09:01:08;17.05;;;6.82;;
17991;SDS011;9121;50.926;5.340;2024-01-30T09:03:35;17.40;;;7.05;;
17991;SDS011;9121;50.926;5.340;2024-01-30T09:06:07;11.27;;;6.32;;
17991;SDS011;9121;50.926;5.340;2024-01-30T09:08:34;12.38;;;5.82;;
17991;SDS011;9121;50.926;5.340;2024-01-30T09:11:02;13.27;;;6.05;;
17991;SDS011;9121;50.926;5.340;2024-01-30T09:13:35;13.95;;;6.10;;
17991;SDS011;9121;50.926;5.340;2024-01-30T09:16:03;11.95;;;5.95;;
17991;SDS011;9121;50.926;5.340;2024-01-30T09:18:30;24.42;;;7.00;;
17991;SDS011;9121;50.926;5.340;2024-01-30T09:20:57;14.40;;;6.10;;
17991;SDS011;9121;50.926;5.340;2024-01-30T09:23:24;17.52;;;7.00;;
17991;SDS011;9121;50.926;5.340;2024-01-30T09:25:51;12.77;;;6.05;;
17991;SDS011;9121;50.926;5.340;2024-01-30T09:28:18;14.38;;;5.97;;
17991;SDS011;9121;50.926;5.340;2024-01-30T09:30:47;15.30;;;5.90;;
17991;SDS011;9121;50.926;5.340;2024-01-30T09:33:14;14.38;;;6.72;;
17991;SDS011;9121;50.926;5.340;2024-01-30T09:35:41;15.90;;;5.45;;
17991;SDS011;9121;50.926;5.340;2024-01-30T09:38:08;13.85;;;6.53;;
17991;SDS011;9121;50.926;5.340;2024-01-30T09:40:35;12.65;;;6.25;;
17991;SDS011;9121;50.926;5.340;2024-01-30T09:43:03;18.70;;;6.32;;
17991;SDS011;9121;50.926;5.340;2024-01-30T09:45:30;13.73;;;6.05;;
17991;SDS011;9121;50.926;5.340;2024-01-30T09:48:01;11.45;;;6.35;;
17991;SDS011;9121;50.926;5.340;2024-01-30T09:50:28;13.07;;;6.72;;
17991;SDS011;9121;50.926;5.340;2024-01-30T09:52:55;16.23;;;6.68;;
17991;SDS011;9121;50.926;5.340;2024-01-30T09:55:24;15.80;;;6.82;;
17991;SDS011;9121;50.926;5.340;2024-01-30T09:57:52;17.52;;;6.45;;
17991;SDS011;9121;50.926;5.340;2024-01-30T10:00:19;11.25;;;6.60;;
17991;SDS011;9121;50.926;5.340;2024-01-30T10:02:51;11.80;;;6.35;;
17991;SDS011;9121;50.926;5.340;2024-01-30T10:05:20;12.63;;;6.43;;
17991;SDS011;9121;50.926;5.340;2024-01-30T10:07:53;11.18;;;6.00;;
17991;SDS011;9121;50.926;5.340;2024-01-30T10:10:21;13.07;;;6.10;;
17991;SDS011;9121;50.926;5.340;2024-01-30T10:12:48;13.43;;;6.15;;
17991;SDS011;9121;50.926;5.340;2024-01-30T10:15:16;14.10;;;6.05;;
17991;SDS011;9121;50.926;5.340;2024-01-30T10:17:44;12.80;;;6.10;;
17991;SDS011;9121;50.926;5.340;2024-01-30T10:20:11;14.23;;;6.38;;
17991;SDS011;9121;50.926;5.340;2024-01-30T10:22:41;11.95;;;5.80;;
17991;SDS011;9121;50.926;5.340;2024-01-30T10:25:09;20.40;;;7.05;;
17991;SDS011;9121;50.926;5.340;2024-01-30T10:27:39;15.55;;;6.72;;
17991;SDS011;9121;50.926;5.340;2024-01-30T10:30:06;16.10;;;7.30;;
17991;SDS011;9121;50.926;5.340;2024-01-30T10:32:34;17.38;;;6.85;;
17991;SDS011;9121;50.926;5.340;2024-01-30T10:35:01;16.25;;;6.95;;
17991;SDS011;9121;50.926;5.340;2024-01-30T10:37:28;16.27;;;6.75;;
17991;SDS011;9121;50.926;5.340;2024-01-30T10:40:00;18.17;;;7.38;;
17991;SDS011;9121;50.926;5.340;2024-01-30T10:42:31;19.98;;;7.15;;
17991;SDS011;9121;50.926;5.340;2024-01-30T10:45:00;14.90;;;6.82;;
17991;SDS011;9121;50.926;5.340;2024-01-30T10:47:33;17.67;;;7.60;;
17991;SDS011;9121;50.926;5.340;2024-01-30T10:50:01;15.77;;;7.18;;
17991;SDS011;9121;50.926;5.340;2024-01-30T10:52:29;20.13;;;7.18;;
17991;SDS011;9121;50.926;5.340;2024-01-30T10:54:57;19.35;;;7.65;;
17991;SDS011;9121;50.926;5.340;2024-01-30T10:57:26;17.80;;;7.53;;
17991;SDS011;9121;50.926;5.340;2024-01-30T10:59:55;17.27;;;7.57;;
17991;SDS011;9121;50.926;5.340;2024-01-30T11:02:24;20.35;;;8.20;;
17991;SDS011;9121;50.926;5.340;2024-01-30T11:04:57;21.27;;;8.18;;
17991;SDS011;9121;50.926;5.340;2024-01-30T11:07:25;16.77;;;8.10;;
17991;SDS011;9121;50.926;5.340;2024-01-30T11:09:53;19.55;;;8.18;;
17991;SDS011;9121;50.926;5.340;2024-01-30T11:12:28;17.35;;;8.00;;
17991;SDS011;9121;50.926;5.340;2024-01-30T11:15:04;16.85;;;8.02;;
17991;SDS011;9121;50.926;5.340;2024-01-30T11:17:45;18.65;;;7.57;;
17991;SDS011;9121;50.926;5.340;2024-01-30T11:20:19;22.42;;;8.00;;
17991;SDS011;9121;50.926;5.340;2024-01-30T11:22:47;21.05;;;7.82;;
17991;SDS011;9121;50.926;5.340;2024-01-30T11:25:16;18.85;;;8.18;;
17991;SDS011;9121;50.926;5.340;2024-01-30T11:27:45;17.52;;;7.03;;
17991;SDS011;9121;50.926;5.340;2024-01-30T11:30:22;17.00;;;8.00;;
17991;SDS011;9121;50.926;5.340;2024-01-30T11:32:59;15.77;;;8.40;;
17991;SDS011;9121;50.926;5.340;2024-01-30T11:35:29;21.88;;;8.63;;
17991;SDS011;9121;50.926;5.340;2024-01-30T11:37:57;20.63;;;8.35;;
17991;SDS011;9121;50.926;5.340;2024-01-30T11:40:25;19.13;;;9.20;;
17991;SDS011;9121;50.926;5.340;2024-01-30T11:42:56;18.05;;;7.85;;
17991;SDS011;9121;50.926;5.340;2024-01-30T11:45:24;16.70;;;9.45;;
17991;SDS011;9121;50.926;5.340;2024-01-30T11:47:51;19.27;;;8.00;;
17991;SDS011;9121;50.926;5.340;2024-01-30T11:50:18;19.73;;;9.32;;
17991;SDS011;9121;50.926;5.340;2024-01-30T11:52:45;22.45;;;9.52;;
17991;SDS011;9121;50.926;5.340;2024-01-30T11:55:13;18.75;;;8.90;;
17991;SDS011;9121;50.926;5.340;2024-01-30T11:57:41;22.50;;;9.20;;
17991;SDS011;9121;50.926;5.340;2024-01-30T12:00:15;18.13;;;9.13;;
17991;SDS011;9121;50.926;5.340;2024-01-30T12:02:43;20.48;;;10.55;;
17991;SDS011;9121;50.926;5.340;2024-01-30T12:05:15;18.23;;;9.55;;
17991;SDS011;9121;50.926;5.340;2024-01-30T12:07:43;16.13;;;9.25;;
17991;SDS011;9121;50.926;5.340;2024-01-30T12:10:11;19.75;;;9.27;;
17991;SDS011;9121;50.926;5.340;2024-01-30T12:12:39;28.20;;;10.60;;
17991;SDS011;9121;50.926;5.340;2024-01-30T12:15:08;17.75;;;9.27;;
17991;SDS011;9121;50.926;5.340;2024-01-30T12:17:36;19.50;;;9.82;;
17991;SDS011;9121;50.926;5.340;2024-01-30T12:20:04;24.45;;;9.52;;
17991;SDS011;9121;50.926;5.340;2024-01-30T12:22:32;20.67;;;9.65;;
17991;SDS011;9121;50.926;5.340;2024-01-30T12:25:02;19.13;;;9.30;;
17991;SDS011;9121;50.926;5.340;2024-01-30T12:27:30;17.02;;;8.57;;
17991;SDS011;9121;50.926;5.340;2024-01-30T12:29:57;17.48;;;8.52;;
17991;SDS011;9121;50.926;5.340;2024-01-30T12:32:24;20.83;;;9.17;;
17991;SDS011;9121;50.926;5.340;2024-01-30T12:34:55;17.17;;;8.98;;
17991;SDS011;9121;50.926;5.340;2024-01-30T12:37:22;28.17;;;9.70;;
17991;SDS011;9121;50.926;5.340;2024-01-30T12:39:51;20.77;;;8.98;;
17991;SDS011;9121;50.926;5.340;2024-01-30T12:42:19;20.25;;;9.60;;
17991;SDS011;9121;50.926;5.340;2024-01-30T12:44:47;23.05;;;9.50;;
17991;SDS011;9121;50.926;5.340;2024-01-30T12:47:15;18.75;;;9.25;;
17991;SDS011;9121;50.926;5.340;2024-01-30T12:49:42;19.75;;;9.00;;
17991;SDS011;9121;50.926;5.340;2024-01-30T12:52:11;15.73;;;8.00;;
17991;SDS011;9121;50.926;5.340;2024-01-30T12:54:38;17.73;;;7.32;;
17991;SDS011;9121;50.926;5.340;2024-01-30T12:57:05;10.38;;;5.57;;
17991;SDS011;9121;50.926;5.340;2024-01-30T12:59:32;15.27;;;5.13;;
17991;SDS011;9121;50.926;5.340;2024-01-30T13:02:00;8.35;;;4.22;;
17991;SDS011;9121;50.926;5.340;2024-01-30T13:04:28;9.25;;;3.90;;
17991;SDS011;9121;50.926;5.340;2024-01-30T13:06:55;9.43;;;3.47;;
17991;SDS011;9121;50.926;5.340;2024-01-30T13:09:24;9.48;;;3.45;;
17991;SDS011;9121;50.926;5.340;2024-01-30T13:11:51;6.88;;;3.72;;
17991;SDS011;9121;50.926;5.340;2024-01-30T13:14:18;9.90;;;3.30;;
17991;SDS011;9121;50.926;5.340;2024-01-30T13:16:45;8.98;;;3.30;;
17991;SDS011;9121;50.926;5.340;2024-01-30T13:19:13;6.22;;;2.67;;
17991;SDS011;9121;50.926;5.340;2024-01-30T13:21:40;8.27;;;2.85;;
17991;SDS011;9121;50.926;5.340;2024-01-30T13:24:07;5.82;;;2.50;;
17991;SDS011;9121;50.926;5.340;2024-01-30T13:26:36;9.30;;;2.67;;
17991;SDS011;9121;50.926;5.340;2024-01-30T13:29:03;5.35;;;2.13;;
17991;SDS011;9121;50.926;5.340;2024-01-30T13:31:30;8.25;;;2.38;;
17991;SDS011;9121;50.926;5.340;2024-01-30T13:33:57;11.85;;;2.53;;
17991;SDS011;9121;50.926;5.340;2024-01-30T13:36:24;6.95;;;2.40;;
17991;SDS011;9121;50.926;5.340;2024-01-30T13:38:51;3.30;;;1.75;;
17991;SDS011;9121;50.926;5.340;2024-01-30T13:41:18;3.47;;;1.83;;
17991;SDS011;9121;50.926;5.340;2024-01-30T13:43:47;3.20;;;1.60;;
17991;SDS011;9121;50.926;5.340;2024-01-30T13:46:15;8.13;;;1.88;;
17991;SDS011;9121;50.926;5.340;2024-01-30T13:48:42;10.73;;;2.17;;
17991;SDS011;9121;50.926;5.340;2024-01-30T13:51:09;8.98;;;1.88;;
17991;SDS011;9121;50.926;5.340;2024-01-30T13:53:36;4.18;;;1.90;;
17991;SDS011;9121;50.926;5.340;2024-01-30T13:56:03;5.95;;;1.58;;
17991;SDS011;9121;50.926;5.340;2024-01-30T13:58:32;2.50;;;1.50;;
17991;SDS011;9121;50.926;5.340;2024-01-30T14:01:02;6.18;;;1.17;;
17991;SDS011;9121;50.926;5.340;2024-01-30T14:03:30;2.60;;;1.25;;
17991;SDS011;9121;50.926;5.340;2024-01-30T14:05:57;3.70;;;1.23;;
17991;SDS011;9121;50.926;5.340;2024-01-30T14:08:26;2.45;;;1.20;;
17991;SDS011;9121;50.926;5.340;2024-01-30T14:10:53;3.10;;;1.33;;
17991;SDS011;9121;50.926;5.340;2024-01-30T14:13:21;1.55;;;0.90;;
17991;SDS011;9121;50.926;5.340;2024-01-30T14:15:50;1.83;;;1.00;;
17991;SDS011;9121;50.926;5.340;2024-01-30T14:18:18;1.63;;;1.17;;
17991;SDS011;9121;50.926;5.340;2024-01-30T14:20:45;3.70;;;1.00;;
17991;SDS011;9121;50.926;5.340;2024-01-30T14:23:12;2.67;;;1.10;;
17991;SDS011;9121;50.926;5.340;2024-01-30T14:25:39;2.25;;;1.00;;
17991;SDS011;9121;50.926;5.340;2024-01-30T14:28:06;4.05;;;1.00;;
17991;SDS011;9121;50.926;5.340;2024-01-30T14:30:33;2.45;;;1.02;;
17991;SDS011;9121;50.926;5.340;2024-01-30T14:33:00;2.85;;;1.20;;
17991;SDS011;9121;50.926;5.340;2024-01-30T14:35:29;4.72;;;1.30;;
17991;SDS011;9121;50.926;5.340;2024-01-30T14:37:56;4.90;;;1.40;;
17991;SDS011;9121;50.926;5.340;2024-01-30T14:40:23;9.43;;;1.20;;
17991;SDS011;9121;50.926;5.340;2024-01-30T14:42:50;1.02;;;1.00;;
17991;SDS011;9121;50.926;5.340;2024-01-30T14:45:17;12.90;;;1.58;;
17991;SDS011;9121;50.926;5.340;2024-01-30T14:47:44;1.40;;;0.90;;
17991;SDS011;9121;50.926;5.340;2024-01-30T14:50:12;4.07;;;1.20;;
17991;SDS011;9121;50.926;5.340;2024-01-30T14:52:40;6.05;;;1.20;;